Weather at Heinsberg

Public forecast

Using degrees Celsius for public forecast. Weather courtesy of forecast.io.

Closest aviation weather report (METAR) to Heinsberg

Closest report is Geilenkirchen Air Base, 5.4 nm (10.0 km) S.

2024/05/25 15:50 (retrieved 1 hour ago)

ETNG 251550Z AUTO 25006KT 200V290 9999 SCT026/// BKN077/// 19/12 Q1017

Closest aviation forecast (TAF) to Heinsberg

Forecast is more than 12 hours old.

Closest forecast is Geilenkirchen Air Base, 5.4 nm (10.0 km) S.

2024/05/24 15:31 (retrieved 1 day ago)

TAF ETNG 241400Z 2415/2506 VRB03KT 7000 -RA BR BKN025 TEMPO 2415/2424 4000 RA SHRA BKN015 SCT020CB PROB30 TEMPO 2415/2421 2000 TSRA BKN007 BKN015CB BECMG 2420/2422 5000 BR -RA BKN010 PROB30 TEMPO 2421/2504 3000 BKN005